sensor_id;sensor_type;location;lat;lon;timestamp;temperature;humidity
15574;DHT22;7888;46.748;8.102;2022-12-07T00:01:34;4.80;56.00
15574;DHT22;7888;46.748;8.102;2022-12-07T00:04:03;4.80;56.00
15574;DHT22;7888;46.748;8.102;2022-12-07T00:06:35;4.80;56.10
15574;DHT22;7888;46.748;8.102;2022-12-07T00:09:04;4.90;56.40
15574;DHT22;7888;46.748;8.102;2022-12-07T00:11:31;4.90;56.30
15574;DHT22;7888;46.748;8.102;2022-12-07T00:14:02;4.90;56.30
15574;DHT22;7888;46.748;8.102;2022-12-07T00:16:31;4.90;56.40
15574;DHT22;7888;46.748;8.102;2022-12-07T00:18:59;5.00;56.40
15574;DHT22;7888;46.748;8.102;2022-12-07T00:21:27;5.00;56.40
15574;DHT22;7888;46.748;8.102;2022-12-07T00:23:54;5.00;56.50
15574;DHT22;7888;46.748;8.102;2022-12-07T00:26:24;5.10;56.50
15574;DHT22;7888;46.748;8.102;2022-12-07T00:28:54;5.10;56.60
15574;DHT22;7888;46.748;8.102;2022-12-07T00:31:24;5.20;56.60
15574;DHT22;7888;46.748;8.102;2022-12-07T00:33:51;5.20;56.60
15574;DHT22;7888;46.748;8.102;2022-12-07T00:36:20;5.20;56.60
15574;DHT22;7888;46.748;8.102;2022-12-07T00:38:47;5.30;56.60
15574;DHT22;7888;46.748;8.102;2022-12-07T00:41:16;5.30;56.60
15574;DHT22;7888;46.748;8.102;2022-12-07T00:43:45;5.30;56.60
15574;DHT22;7888;46.748;8.102;2022-12-07T00:46:12;5.40;56.60
15574;DHT22;7888;46.748;8.102;2022-12-07T00:48:39;5.40;56.50
15574;DHT22;7888;46.748;8.102;2022-12-07T00:51:05;5.50;56.60
15574;DHT22;7888;46.748;8.102;2022-12-07T00:53:34;5.50;56.50
15574;DHT22;7888;46.748;8.102;2022-12-07T00:56:14;5.50;56.50
15574;DHT22;7888;46.748;8.102;2022-12-07T00:58:41;5.50;56.60
15574;DHT22;7888;46.748;8.102;2022-12-07T01:01:09;5.50;56.50
15574;DHT22;7888;46.748;8.102;2022-12-07T01:03:36;5.60;56.50
15574;DHT22;7888;46.748;8.102;2022-12-07T01:06:03;5.50;56.40
15574;DHT22;7888;46.748;8.102;2022-12-07T01:08:29;5.50;56.30
15574;DHT22;7888;46.748;8.102;2022-12-07T01:11:03;5.60;56.30
15574;DHT22;7888;46.748;8.102;2022-12-07T01:13:32;5.60;56.20
15574;DHT22;7888;46.748;8.102;2022-12-07T01:16:02;5.60;56.10
15574;DHT22;7888;46.748;8.102;2022-12-07T01:18:31;5.60;56.10
15574;DHT22;7888;46.748;8.102;2022-12-07T01:21:07;5.50;56.00
15574;DHT22;7888;46.748;8.102;2022-12-07T01:23:38;5.50;56.20
15574;DHT22;7888;46.748;8.102;2022-12-07T01:26:10;5.50;56.10
15574;DHT22;7888;46.748;8.102;2022-12-07T01:28:38;5.50;56.30
15574;DHT22;7888;46.748;8.102;2022-12-07T01:31:06;5.50;56.30
15574;DHT22;7888;46.748;8.102;2022-12-07T01:33:37;5.50;56.30
15574;DHT22;7888;46.748;8.102;2022-12-07T01:36:05;5.60;56.30
15574;DHT22;7888;46.748;8.102;2022-12-07T01:38:43;5.60;56.40
15574;DHT22;7888;46.748;8.102;2022-12-07T01:41:10;5.60;56.30
15574;DHT22;7888;46.748;8.102;2022-12-07T01:43:36;5.60;56.30
15574;DHT22;7888;46.748;8.102;2022-12-07T01:46:03;5.70;56.40
15574;DHT22;7888;46.748;8.102;2022-12-07T01:48:39;5.60;56.30
15574;DHT22;7888;46.748;8.102;2022-12-07T01:51:11;5.70;56.50
15574;DHT22;7888;46.748;8.102;2022-12-07T01:53:43;5.70;56.40
15574;DHT22;7888;46.748;8.102;2022-12-07T01:56:14;5.70;56.40
15574;DHT22;7888;46.748;8.102;2022-12-07T01:58:45;5.70;56.40
15574;DHT22;7888;46.748;8.102;2022-12-07T02:01:11;5.70;56.30
15574;DHT22;7888;46.748;8.102;2022-12-07T02:03:42;5.70;56.30
15574;DHT22;7888;46.748;8.102;2022-12-07T02:06:12;5.70;56.40
15574;DHT22;7888;46.748;8.102;2022-12-07T02:08:42;5.70;56.40
15574;DHT22;7888;46.748;8.102;2022-12-07T02:11:09;5.70;56.40
15574;DHT22;7888;46.748;8.102;2022-12-07T02:13:37;5.80;56.40
15574;DHT22;7888;46.748;8.102;2022-12-07T02:29:09;5.80;56.40
15574;DHT22;7888;46.748;8.102;2022-12-07T02:31:49;5.80;56.20
15574;DHT22;7888;46.748;8.102;2022-12-07T02:34:30;5.80;56.10
15574;DHT22;7888;46.748;8.102;2022-12-07T02:37:18;5.80;56.10
15574;DHT22;7888;46.748;8.102;2022-12-07T02:40:08;5.80;56.00
15574;DHT22;7888;46.748;8.102;2022-12-07T02:42:43;5.70;55.90
15574;DHT22;7888;46.748;8.102;2022-12-07T02:45:31;5.70;56.10
15574;DHT22;7888;46.748;8.102;2022-12-07T02:48:00;5.70;56.10
15574;DHT22;7888;46.748;8.102;2022-12-07T02:50:27;5.70;56.10
15574;DHT22;7888;46.748;8.102;2022-12-07T02:52:54;5.70;56.10
15574;DHT22;7888;46.748;8.102;2022-12-07T02:55:26;5.70;56.10
15574;DHT22;7888;46.748;8.102;2022-12-07T02:58:53;5.70;56.70
15574;DHT22;7888;46.748;8.102;2022-12-07T03:04:28;5.70;56.30
15574;DHT22;7888;46.748;8.102;2022-12-07T03:07:25;5.70;56.20
15574;DHT22;7888;46.748;8.102;2022-12-07T03:18:58;5.70;56.20
15574;DHT22;7888;46.748;8.102;2022-12-07T03:21:33;5.70;56.10
15574;DHT22;7888;46.748;8.102;2022-12-07T03:24:19;5.60;56.00
15574;DHT22;7888;46.748;8.102;2022-12-07T03:26:52;5.70;56.30
15574;DHT22;7888;46.748;8.102;2022-12-07T03:29:31;5.70;56.20
15574;DHT22;7888;46.748;8.102;2022-12-07T03:32:16;5.70;56.30
15574;DHT22;7888;46.748;8.102;2022-12-07T03:35:05;5.70;56.30
15574;DHT22;7888;46.748;8.102;2022-12-07T03:38:15;5.70;56.40
15574;DHT22;7888;46.748;8.102;2022-12-07T03:40:58;5.70;56.40
15574;DHT22;7888;46.748;8.102;2022-12-07T03:43:30;5.80;56.80
15574;DHT22;7888;46.748;8.102;2022-12-07T03:49:15;5.80;56.20
15574;DHT22;7888;46.748;8.102;2022-12-07T03:52:36;5.80;56.10
15574;DHT22;7888;46.748;8.102;2022-12-07T03:55:16;5.80;56.00
15574;DHT22;7888;46.748;8.102;2022-12-07T03:57:47;5.80;56.10
15574;DHT22;7888;46.748;8.102;2022-12-07T04:00:18;5.80;56.10
15574;DHT22;7888;46.748;8.102;2022-12-07T04:02:44;5.80;56.10
15574;DHT22;7888;46.748;8.102;2022-12-07T04:05:11;5.80;56.10
15574;DHT22;7888;46.748;8.102;2022-12-07T04:07:37;5.80;56.10
15574;DHT22;7888;46.748;8.102;2022-12-07T04:10:03;5.80;55.90
15574;DHT22;7888;46.748;8.102;2022-12-07T04:12:30;5.90;55.90
15574;DHT22;7888;46.748;8.102;2022-12-07T04:14:56;5.90;55.90
15574;DHT22;7888;46.748;8.102;2022-12-07T04:17:21;5.80;55.80
15574;DHT22;7888;46.748;8.102;2022-12-07T04:19:47;5.90;55.90
15574;DHT22;7888;46.748;8.102;2022-12-07T04:22:13;5.90;55.90
15574;DHT22;7888;46.748;8.102;2022-12-07T04:24:39;5.90;55.90
15574;DHT22;7888;46.748;8.102;2022-12-07T04:27:05;5.90;55.90
15574;DHT22;7888;46.748;8.102;2022-12-07T04:29:31;5.90;56.00
15574;DHT22;7888;46.748;8.102;2022-12-07T04:31:56;5.90;56.00
15574;DHT22;7888;46.748;8.102;2022-12-07T04:34:22;5.90;56.10
15574;DHT22;7888;46.748;8.102;2022-12-07T04:36:48;5.90;56.10
15574;DHT22;7888;46.748;8.102;2022-12-07T04:39:23;5.90;56.10
15574;DHT22;7888;46.748;8.102;2022-12-07T04:41:56;6.00;56.20
15574;DHT22;7888;46.748;8.102;2022-12-07T04:44:24;6.00;56.10
15574;DHT22;7888;46.748;8.102;2022-12-07T04:46:51;6.00;56.10
15574;DHT22;7888;46.748;8.102;2022-12-07T04:49:18;6.00;56.10
15574;DHT22;7888;46.748;8.102;2022-12-07T04:51:44;6.00;56.00
15574;DHT22;7888;46.748;8.102;2022-12-07T04:54:11;6.00;56.10
15574;DHT22;7888;46.748;8.102;2022-12-07T04:56:37;6.00;56.00
15574;DHT22;7888;46.748;8.102;2022-12-07T04:59:04;6.00;56.00
15574;DHT22;7888;46.748;8.102;2022-12-07T05:01:30;6.00;55.90
15574;DHT22;7888;46.748;8.102;2022-12-07T05:03:57;6.10;56.00
15574;DHT22;7888;46.748;8.102;2022-12-07T05:06:23;6.00;55.90
15574;DHT22;7888;46.748;8.102;2022-12-07T05:08:49;6.10;56.00
15574;DHT22;7888;46.748;8.102;2022-12-07T05:11:15;6.10;56.00
15574;DHT22;7888;46.748;8.102;2022-12-07T05:14:00;6.10;56.00
15574;DHT22;7888;46.748;8.102;2022-12-07T05:16:27;6.10;56.00
15574;DHT22;7888;46.748;8.102;2022-12-07T05:18:53;6.20;56.10
15574;DHT22;7888;46.748;8.102;2022-12-07T05:21:19;6.20;56.20
15574;DHT22;7888;46.748;8.102;2022-12-07T05:23:45;6.20;56.40
15574;DHT22;7888;46.748;8.102;2022-12-07T05:26:11;6.20;56.50
15574;DHT22;7888;46.748;8.102;2022-12-07T05:28:37;6.30;56.40
15574;DHT22;7888;46.748;8.102;2022-12-07T05:31:03;6.30;56.20
15574;DHT22;7888;46.748;8.102;2022-12-07T05:33:29;6.30;56.20
15574;DHT22;7888;46.748;8.102;2022-12-07T05:35:55;6.30;56.10
15574;DHT22;7888;46.748;8.102;2022-12-07T05:38:20;6.30;56.00
15574;DHT22;7888;46.748;8.102;2022-12-07T05:40:46;6.30;55.90
15574;DHT22;7888;46.748;8.102;2022-12-07T05:43:12;6.30;55.80
15574;DHT22;7888;46.748;8.102;2022-12-07T05:45:38;6.30;55.70
15574;DHT22;7888;46.748;8.102;2022-12-07T05:48:04;6.30;55.70
15574;DHT22;7888;46.748;8.102;2022-12-07T05:50:29;6.30;55.60
15574;DHT22;7888;46.748;8.102;2022-12-07T05:52:55;6.30;55.60
15574;DHT22;7888;46.748;8.102;2022-12-07T05:55:21;6.30;55.60
15574;DHT22;7888;46.748;8.102;2022-12-07T05:57:47;6.30;55.70
15574;DHT22;7888;46.748;8.102;2022-12-07T06:00:31;6.30;55.80
15574;DHT22;7888;46.748;8.102;2022-12-07T06:02:58;6.30;55.70
15574;DHT22;7888;46.748;8.102;2022-12-07T06:05:23;6.30;55.60
15574;DHT22;7888;46.748;8.102;2022-12-07T06:07:49;6.30;55.50
15574;DHT22;7888;46.748;8.102;2022-12-07T06:10:15;6.30;55.50
15574;DHT22;7888;46.748;8.102;2022-12-07T06:12:41;6.20;55.50
15574;DHT22;7888;46.748;8.102;2022-12-07T06:15:09;6.20;55.50
15574;DHT22;7888;46.748;8.102;2022-12-07T06:17:36;6.20;55.50
15574;DHT22;7888;46.748;8.102;2022-12-07T06:20:03;6.20;55.50
15574;DHT22;7888;46.748;8.102;2022-12-07T06:22:29;6.10;55.40
15574;DHT22;7888;46.748;8.102;2022-12-07T06:24:54;6.10;55.30
15574;DHT22;7888;46.748;8.102;2022-12-07T06:27:20;6.10;55.30
15574;DHT22;7888;46.748;8.102;2022-12-07T06:29:46;6.10;55.30
15574;DHT22;7888;46.748;8.102;2022-12-07T06:32:12;6.10;55.40
15574;DHT22;7888;46.748;8.102;2022-12-07T06:34:38;6.10;55.40
15574;DHT22;7888;46.748;8.102;2022-12-07T06:37:04;6.10;55.30
15574;DHT22;7888;46.748;8.102;2022-12-07T06:39:30;6.00;55.30
15574;DHT22;7888;46.748;8.102;2022-12-07T06:41:56;6.00;55.30
15574;DHT22;7888;46.748;8.102;2022-12-07T06:44:23;6.00;55.30
15574;DHT22;7888;46.748;8.102;2022-12-07T06:46:50;6.00;55.90
15574;DHT22;7888;46.748;8.102;2022-12-07T06:49:17;6.00;55.30
15574;DHT22;7888;46.748;8.102;2022-12-07T06:51:43;5.90;55.30
15574;DHT22;7888;46.748;8.102;2022-12-07T06:54:10;5.90;55.30
15574;DHT22;7888;46.748;8.102;2022-12-07T06:56:38;5.90;55.30
15574;DHT22;7888;46.748;8.102;2022-12-07T06:59:05;5.80;55.20
15574;DHT22;7888;46.748;8.102;2022-12-07T07:01:32;5.80;55.30
15574;DHT22;7888;46.748;8.102;2022-12-07T07:03:59;5.70;55.30
15574;DHT22;7888;46.748;8.102;2022-12-07T07:06:25;5.70;55.30
15574;DHT22;7888;46.748;8.102;2022-12-07T07:08:51;5.70;55.30
15574;DHT22;7888;46.748;8.102;2022-12-07T07:11:17;5.70;55.30
15574;DHT22;7888;46.748;8.102;2022-12-07T07:13:44;5.70;55.30
15574;DHT22;7888;46.748;8.102;2022-12-07T07:16:10;5.60;55.30
15574;DHT22;7888;46.748;8.102;2022-12-07T07:18:36;5.60;55.30
15574;DHT22;7888;46.748;8.102;2022-12-07T07:21:03;5.60;55.40
15574;DHT22;7888;46.748;8.102;2022-12-07T07:23:29;5.60;55.40
15574;DHT22;7888;46.748;8.102;2022-12-07T07:25:55;5.60;55.40
15574;DHT22;7888;46.748;8.102;2022-12-07T07:28:21;5.60;55.50
15574;DHT22;7888;46.748;8.102;2022-12-07T07:30:47;5.60;55.50
15574;DHT22;7888;46.748;8.102;2022-12-07T07:33:13;5.50;55.50
15574;DHT22;7888;46.748;8.102;2022-12-07T07:35:39;5.60;55.50
15574;DHT22;7888;46.748;8.102;2022-12-07T07:38:06;5.60;55.50
15574;DHT22;7888;46.748;8.102;2022-12-07T07:40:32;5.60;55.40
15574;DHT22;7888;46.748;8.102;2022-12-07T07:42:58;5.50;56.00
15574;DHT22;7888;46.748;8.102;2022-12-07T07:45:25;5.50;55.30
15574;DHT22;7888;46.748;8.102;2022-12-07T07:47:52;5.50;55.30
15574;DHT22;7888;46.748;8.102;2022-12-07T07:50:18;5.50;55.40
15574;DHT22;7888;46.748;8.102;2022-12-07T07:52:45;5.50;55.40
15574;DHT22;7888;46.748;8.102;2022-12-07T07:55:11;5.50;55.40
15574;DHT22;7888;46.748;8.102;2022-12-07T07:57:38;5.50;55.40
15574;DHT22;7888;46.748;8.102;2022-12-07T08:00:11;5.40;55.40
15574;DHT22;7888;46.748;8.102;2022-12-07T08:02:39;5.40;55.40
15574;DHT22;7888;46.748;8.102;2022-12-07T08:05:07;5.40;55.40
15574;DHT22;7888;46.748;8.102;2022-12-07T08:07:33;5.40;55.30
15574;DHT22;7888;46.748;8.102;2022-12-07T08:09:59;5.40;55.30
15574;DHT22;7888;46.748;8.102;2022-12-07T08:12:24;5.50;55.40
15574;DHT22;7888;46.748;8.102;2022-12-07T08:14:50;5.40;55.30
15574;DHT22;7888;46.748;8.102;2022-12-07T08:17:16;5.50;55.40
15574;DHT22;7888;46.748;8.102;2022-12-07T08:19:42;5.50;55.40
15574;DHT22;7888;46.748;8.102;2022-12-07T08:22:07;5.50;55.50
15574;DHT22;7888;46.748;8.102;2022-12-07T08:24:34;5.50;55.60
15574;DHT22;7888;46.748;8.102;2022-12-07T08:27:01;5.60;55.60
15574;DHT22;7888;46.748;8.102;2022-12-07T08:29:27;5.60;55.60
15574;DHT22;7888;46.748;8.102;2022-12-07T08:31:53;5.60;55.60
15574;DHT22;7888;46.748;8.102;2022-12-07T08:34:19;5.60;56.20
15574;DHT22;7888;46.748;8.102;2022-12-07T08:36:45;5.60;55.50
15574;DHT22;7888;46.748;8.102;2022-12-07T08:39:10;5.60;55.50
15574;DHT22;7888;46.748;8.102;2022-12-07T08:41:36;5.60;55.40
15574;DHT22;7888;46.748;8.102;2022-12-07T08:44:03;5.60;55.40
15574;DHT22;7888;46.748;8.102;2022-12-07T08:46:36;5.60;55.40
15574;DHT22;7888;46.748;8.102;2022-12-07T08:49:17;5.70;55.40
15574;DHT22;7888;46.748;8.102;2022-12-07T08:51:48;5.70;55.30
15574;DHT22;7888;46.748;8.102;2022-12-07T08:54:16;5.70;55.30
15574;DHT22;7888;46.748;8.102;2022-12-07T08:56:43;5.70;55.30
15574;DHT22;7888;46.748;8.102;2022-12-07T08:59:12;5.70;55.30
15574;DHT22;7888;46.748;8.102;2022-12-07T09:01:41;5.70;55.20
15574;DHT22;7888;46.748;8.102;2022-12-07T09:04:07;5.80;55.20
15574;DHT22;7888;46.748;8.102;2022-12-07T09:06:33;5.70;55.20
15574;DHT22;7888;46.748;8.102;2022-12-07T09:09:01;5.80;55.30
15574;DHT22;7888;46.748;8.102;2022-12-07T09:11:28;5.80;55.20
15574;DHT22;7888;46.748;8.102;2022-12-07T09:13:54;5.80;55.10
15574;DHT22;7888;46.748;8.102;2022-12-07T09:16:20;5.80;55.10
15574;DHT22;7888;46.748;8.102;2022-12-07T09:18:46;5.80;55.70
15574;DHT22;7888;46.748;8.102;2022-12-07T09:21:11;5.80;55.10
15574;DHT22;7888;46.748;8.102;2022-12-07T09:23:37;5.80;55.00
15574;DHT22;7888;46.748;8.102;2022-12-07T09:26:04;5.80;55.00
15574;DHT22;7888;46.748;8.102;2022-12-07T09:28:31;5.80;55.00
15574;DHT22;7888;46.748;8.102;2022-12-07T09:30:57;5.80;55.10
15574;DHT22;7888;46.748;8.102;2022-12-07T09:33:23;5.80;55.10
15574;DHT22;7888;46.748;8.102;2022-12-07T09:35:50;5.80;55.10
15574;DHT22;7888;46.748;8.102;2022-12-07T09:38:17;5.80;55.20
15574;DHT22;7888;46.748;8.102;2022-12-07T09:40:44;5.80;55.20
15574;DHT22;7888;46.748;8.102;2022-12-07T09:43:17;5.80;55.20
15574;DHT22;7888;46.748;8.102;2022-12-07T09:45:47;5.80;55.10
15574;DHT22;7888;46.748;8.102;2022-12-07T09:48:29;5.90;55.10
15574;DHT22;7888;46.748;8.102;2022-12-07T09:51:00;5.90;55.10
15574;DHT22;7888;46.748;8.102;2022-12-07T09:53:34;5.90;55.00
15574;DHT22;7888;46.748;8.102;2022-12-07T09:56:03;5.90;54.90
15574;DHT22;7888;46.748;8.102;2022-12-07T09:58:30;6.00;55.00
15574;DHT22;7888;46.748;8.102;2022-12-07T10:03:34;6.00;54.80
15574;DHT22;7888;46.748;8.102;2022-12-07T10:06:02;6.00;54.90
15574;DHT22;7888;46.748;8.102;2022-12-07T10:08:30;6.10;54.90
15574;DHT22;7888;46.748;8.102;2022-12-07T10:10:57;6.10;54.80
15574;DHT22;7888;46.748;8.102;2022-12-07T10:13:44;6.10;54.60
15574;DHT22;7888;46.748;8.102;2022-12-07T10:18:50;6.10;54.60
15574;DHT22;7888;46.748;8.102;2022-12-07T10:21:19;6.20;54.60
15574;DHT22;7888;46.748;8.102;2022-12-07T10:24:13;6.20;54.60
15574;DHT22;7888;46.748;8.102;2022-12-07T10:26:50;6.20;54.50
15574;DHT22;7888;46.748;8.102;2022-12-07T10:29:22;6.10;54.50
15574;DHT22;7888;46.748;8.102;2022-12-07T10:34:52;6.10;54.50
15574;DHT22;7888;46.748;8.102;2022-12-07T10:37:56;6.20;54.60
15574;DHT22;7888;46.748;8.102;2022-12-07T10:51:42;6.30;54.50
15574;DHT22;7888;46.748;8.102;2022-12-07T10:54:41;6.30;54.60
15574;DHT22;7888;46.748;8.102;2022-12-07T10:57:26;6.30;54.60
15574;DHT22;7888;46.748;8.102;2022-12-07T11:00:21;6.40;54.70
15574;DHT22;7888;46.748;8.102;2022-12-07T11:08:52;6.40;54.60
15574;DHT22;7888;46.748;8.102;2022-12-07T11:11:30;6.50;54.80
15574;DHT22;7888;46.748;8.102;2022-12-07T11:16:59;6.50;54.80
15574;DHT22;7888;46.748;8.102;2022-12-07T11:22:20;6.70;54.50
15574;DHT22;7888;46.748;8.102;2022-12-07T11:24:56;6.70;54.60
15574;DHT22;7888;46.748;8.102;2022-12-07T11:27:44;6.70;54.40
15574;DHT22;7888;46.748;8.102;2022-12-07T11:30:33;6.70;54.30
15574;DHT22;7888;46.748;8.102;2022-12-07T11:33:40;6.80;54.10
15574;DHT22;7888;46.748;8.102;2022-12-07T11:39:03;6.80;54.00
15574;DHT22;7888;46.748;8.102;2022-12-07T11:41:35;6.80;54.00
15574;DHT22;7888;46.748;8.102;2022-12-07T11:44:13;6.80;54.00
15574;DHT22;7888;46.748;8.102;2022-12-07T11:47:02;6.80;54.00
15574;DHT22;7888;46.748;8.102;2022-12-07T11:52:53;6.80;54.00
15574;DHT22;7888;46.748;8.102;2022-12-07T11:55:38;6.70;53.90
15574;DHT22;7888;46.748;8.102;2022-12-07T12:06:25;6.70;54.10
15574;DHT22;7888;46.748;8.102;2022-12-07T12:09:11;6.70;54.10
15574;DHT22;7888;46.748;8.102;2022-12-07T12:21:00;6.70;53.90
15574;DHT22;7888;46.748;8.102;2022-12-07T12:26:36;6.70;54.00
15574;DHT22;7888;46.748;8.102;2022-12-07T12:29:06;6.70;53.70
15574;DHT22;7888;46.748;8.102;2022-12-07T12:31:47;6.70;53.90
15574;DHT22;7888;46.748;8.102;2022-12-07T12:34:59;6.80;53.90
15574;DHT22;7888;46.748;8.102;2022-12-07T12:37:45;6.70;53.70
15574;DHT22;7888;46.748;8.102;2022-12-07T12:42:54;6.70;53.90
15574;DHT22;7888;46.748;8.102;2022-12-07T12:45:30;6.80;53.80
15574;DHT22;7888;46.748;8.102;2022-12-07T12:48:02;6.80;53.90
15574;DHT22;7888;46.748;8.102;2022-12-07T12:50:30;6.70;53.90
15574;DHT22;7888;46.748;8.102;2022-12-07T12:53:23;6.80;53.90
15574;DHT22;7888;46.748;8.102;2022-12-07T12:58:39;6.70;53.60
15574;DHT22;7888;46.748;8.102;2022-12-07T13:01:32;6.80;53.70
15574;DHT22;7888;46.748;8.102;2022-12-07T13:04:24;6.70;53.30
15574;DHT22;7888;46.748;8.102;2022-12-07T13:07:12;6.80;53.40
15574;DHT22;7888;46.748;8.102;2022-12-07T13:09:58;6.80;53.50
15574;DHT22;7888;46.748;8.102;2022-12-07T13:12:24;6.80;53.60
15574;DHT22;7888;46.748;8.102;2022-12-07T13:14:58;6.70;53.50
15574;DHT22;7888;46.748;8.102;2022-12-07T13:20:05;6.70;53.40
15574;DHT22;7888;46.748;8.102;2022-12-07T13:28:01;6.80;53.50
15574;DHT22;7888;46.748;8.102;2022-12-07T13:30:46;6.80;53.50
15574;DHT22;7888;46.748;8.102;2022-12-07T13:33:29;6.80;53.50
15574;DHT22;7888;46.748;8.102;2022-12-07T13:35:55;6.90;53.70
15574;DHT22;7888;46.748;8.102;2022-12-07T13:38:23;6.90;53.70
15574;DHT22;7888;46.748;8.102;2022-12-07T13:41:04;6.90;53.60
15574;DHT22;7888;46.748;8.102;2022-12-07T13:43:58;6.90;53.40
15574;DHT22;7888;46.748;8.102;2022-12-07T13:46:42;7.00;53.50
15574;DHT22;7888;46.748;8.102;2022-12-07T13:49:20;7.00;53.60
15574;DHT22;7888;46.748;8.102;2022-12-07T13:51:48;7.00;53.60
15574;DHT22;7888;46.748;8.102;2022-12-07T13:54:15;7.10;53.80
15574;DHT22;7888;46.748;8.102;2022-12-07T13:56:42;7.10;53.70
15574;DHT22;7888;46.748;8.102;2022-12-07T13:59:22;7.10;53.60
15574;DHT22;7888;46.748;8.102;2022-12-07T14:01:52;7.20;53.50
15574;DHT22;7888;46.748;8.102;2022-12-07T14:07:23;7.20;53.30
15574;DHT22;7888;46.748;8.102;2022-12-07T14:10:03;7.20;53.20
15574;DHT22;7888;46.748;8.102;2022-12-07T14:12:34;7.20;53.10
15574;DHT22;7888;46.748;8.102;2022-12-07T14:15:02;7.20;53.10
15574;DHT22;7888;46.748;8.102;2022-12-07T14:17:29;7.20;53.10
15574;DHT22;7888;46.748;8.102;2022-12-07T14:19:57;7.20;53.10
15574;DHT22;7888;46.748;8.102;2022-12-07T14:25:15;7.20;53.00
15574;DHT22;7888;46.748;8.102;2022-12-07T14:27:51;7.20;52.90
15574;DHT22;7888;46.748;8.102;2022-12-07T14:30:22;7.20;53.10
15574;DHT22;7888;46.748;8.102;2022-12-07T14:33:03;7.20;53.20
15574;DHT22;7888;46.748;8.102;2022-12-07T14:35:31;7.20;52.90
15574;DHT22;7888;46.748;8.102;2022-12-07T14:37:57;7.20;53.00
15574;DHT22;7888;46.748;8.102;2022-12-07T14:40:26;7.20;52.90
15574;DHT22;7888;46.748;8.102;2022-12-07T14:43:10;7.20;52.80
15574;DHT22;7888;46.748;8.102;2022-12-07T14:45:38;7.10;52.70
15574;DHT22;7888;46.748;8.102;2022-12-07T14:48:05;7.10;52.90
15574;DHT22;7888;46.748;8.102;2022-12-07T14:50:36;7.10;53.00
15574;DHT22;7888;46.748;8.102;2022-12-07T14:53:13;7.00;53.50
15574;DHT22;7888;46.748;8.102;2022-12-07T14:55:41;7.00;52.70
15574;DHT22;7888;46.748;8.102;2022-12-07T14:58:16;7.00;52.90
15574;DHT22;7888;46.748;8.102;2022-12-07T15:00:43;7.00;52.90
15574;DHT22;7888;46.748;8.102;2022-12-07T15:03:09;7.00;52.90
15574;DHT22;7888;46.748;8.102;2022-12-07T15:05:36;7.00;52.80
15574;DHT22;7888;46.748;8.102;2022-12-07T15:08:03;7.00;52.80
15574;DHT22;7888;46.748;8.102;2022-12-07T15:10:32;6.90;52.70
15574;DHT22;7888;46.748;8.102;2022-12-07T15:12:59;6.90;52.80
15574;DHT22;7888;46.748;8.102;2022-12-07T15:15:49;6.90;52.90
15574;DHT22;7888;46.748;8.102;2022-12-07T15:18:17;6.90;52.90
15574;DHT22;7888;46.748;8.102;2022-12-07T15:20:45;6.90;52.90
15574;DHT22;7888;46.748;8.102;2022-12-07T15:23:11;6.80;52.90
15574;DHT22;7888;46.748;8.102;2022-12-07T15:25:47;6.80;52.90
15574;DHT22;7888;46.748;8.102;2022-12-07T15:28:14;6.80;52.90
15574;DHT22;7888;46.748;8.102;2022-12-07T15:30:43;6.80;52.90
15574;DHT22;7888;46.748;8.102;2022-12-07T15:33:10;6.80;52.90
15574;DHT22;7888;46.748;8.102;2022-12-07T15:35:44;6.80;52.90
15574;DHT22;7888;46.748;8.102;2022-12-07T15:38:10;6.70;52.80
15574;DHT22;7888;46.748;8.102;2022-12-07T15:40:37;6.70;52.90
15574;DHT22;7888;46.748;8.102;2022-12-07T15:43:04;6.70;53.00
15574;DHT22;7888;46.748;8.102;2022-12-07T15:45:30;6.70;53.00
15574;DHT22;7888;46.748;8.102;2022-12-07T15:47:56;6.70;53.10
15574;DHT22;7888;46.748;8.102;2022-12-07T15:50:22;6.70;53.10
15574;DHT22;7888;46.748;8.102;2022-12-07T15:52:48;6.70;53.10
15574;DHT22;7888;46.748;8.102;2022-12-07T15:55:14;6.70;53.00
15574;DHT22;7888;46.748;8.102;2022-12-07T15:57:40;6.70;53.10
15574;DHT22;7888;46.748;8.102;2022-12-07T16:00:07;6.70;53.10
15574;DHT22;7888;46.748;8.102;2022-12-07T16:02:35;6.70;53.00
15574;DHT22;7888;46.748;8.102;2022-12-07T16:05:01;6.70;52.90
15574;DHT22;7888;46.748;8.102;2022-12-07T16:07:27;6.70;52.90
15574;DHT22;7888;46.748;8.102;2022-12-07T16:09:53;6.70;53.00
15574;DHT22;7888;46.748;8.102;2022-12-07T16:12:19;6.60;53.00
15574;DHT22;7888;46.748;8.102;2022-12-07T16:14:45;6.70;53.10
15574;DHT22;7888;46.748;8.102;2022-12-07T16:17:11;6.60;53.10
15574;DHT22;7888;46.748;8.102;2022-12-07T16:19:37;6.60;53.00
15574;DHT22;7888;46.748;8.102;2022-12-07T16:22:04;6.60;53.00
15574;DHT22;7888;46.748;8.102;2022-12-07T16:24:31;6.60;53.10
15574;DHT22;7888;46.748;8.102;2022-12-07T16:26:57;6.60;53.10
15574;DHT22;7888;46.748;8.102;2022-12-07T16:29:23;6.60;53.10
15574;DHT22;7888;46.748;8.102;2022-12-07T16:31:50;6.50;53.10
15574;DHT22;7888;46.748;8.102;2022-12-07T16:34:17;6.50;53.10
15574;DHT22;7888;46.748;8.102;2022-12-07T16:36:43;6.50;53.10
15574;DHT22;7888;46.748;8.102;2022-12-07T16:39:09;6.50;53.10
15574;DHT22;7888;46.748;8.102;2022-12-07T16:41:35;6.50;53.10
15574;DHT22;7888;46.748;8.102;2022-12-07T16:44:04;6.50;53.20
15574;DHT22;7888;46.748;8.102;2022-12-07T16:46:33;6.40;53.20
15574;DHT22;7888;46.748;8.102;2022-12-07T16:49:00;6.50;53.20
15574;DHT22;7888;46.748;8.102;2022-12-07T16:51:26;6.40;53.10
15574;DHT22;7888;46.748;8.102;2022-12-07T16:53:53;6.40;53.10
15574;DHT22;7888;46.748;8.102;2022-12-07T16:56:19;6.40;53.10
15574;DHT22;7888;46.748;8.102;2022-12-07T16:58:46;6.40;53.10
15574;DHT22;7888;46.748;8.102;2022-12-07T17:01:18;6.40;53.00
15574;DHT22;7888;46.748;8.102;2022-12-07T17:03:45;6.30;53.00
15574;DHT22;7888;46.748;8.102;2022-12-07T17:06:23;6.30;53.10
15574;DHT22;7888;46.748;8.102;2022-12-07T17:08:51;6.30;53.00
15574;DHT22;7888;46.748;8.102;2022-12-07T17:11:22;6.30;53.10
15574;DHT22;7888;46.748;8.102;2022-12-07T17:13:54;6.30;53.10
15574;DHT22;7888;46.748;8.102;2022-12-07T17:16:38;6.30;53.20
15574;DHT22;7888;46.748;8.102;2022-12-07T17:19:05;6.30;53.20
15574;DHT22;7888;46.748;8.102;2022-12-07T17:21:32;6.20;53.20
15574;DHT22;7888;46.748;8.102;2022-12-07T17:24:03;6.20;53.60
15574;DHT22;7888;46.748;8.102;2022-12-07T17:26:31;6.20;53.20
15574;DHT22;7888;46.748;8.102;2022-12-07T17:28:57;6.20;53.20
15574;DHT22;7888;46.748;8.102;2022-12-07T17:31:24;6.10;53.20
15574;DHT22;7888;46.748;8.102;2022-12-07T17:33:50;6.10;53.20
15574;DHT22;7888;46.748;8.102;2022-12-07T17:36:19;6.10;53.20
15574;DHT22;7888;46.748;8.102;2022-12-07T17:38:47;6.10;53.20
15574;DHT22;7888;46.748;8.102;2022-12-07T17:41:24;6.10;53.20
15574;DHT22;7888;46.748;8.102;2022-12-07T17:44:13;6.10;53.20
15574;DHT22;7888;46.748;8.102;2022-12-07T17:46:40;6.10;53.20
15574;DHT22;7888;46.748;8.102;2022-12-07T17:49:06;6.00;53.30
15574;DHT22;7888;46.748;8.102;2022-12-07T17:51:33;6.00;53.40
15574;DHT22;7888;46.748;8.102;2022-12-07T17:54:18;6.00;53.40
15574;DHT22;7888;46.748;8.102;2022-12-07T17:56:44;6.00;53.40
15574;DHT22;7888;46.748;8.102;2022-12-07T17:59:11;6.00;53.40
15574;DHT22;7888;46.748;8.102;2022-12-07T18:01:37;6.00;53.40
15574;DHT22;7888;46.748;8.102;2022-12-07T18:04:04;6.00;53.40
15574;DHT22;7888;46.748;8.102;2022-12-07T18:06:30;5.90;53.40
15574;DHT22;7888;46.748;8.102;2022-12-07T18:08:57;5.90;53.30
15574;DHT22;7888;46.748;8.102;2022-12-07T18:11:23;5.90;53.40